sensor_id;sensor_type;location;lat;lon;timestamp;temperature;humidity
64561;DHT22;50960;46.838;16.838;2023-02-28T05:29:21;1.10;92.00
64561;DHT22;50960;46.838;16.838;2023-02-28T05:31:48;1.00;92.20
64561;DHT22;50960;46.838;16.838;2023-02-28T05:34:14;1.10;92.40
64561;DHT22;50960;46.838;16.838;2023-02-28T05:36:41;1.10;92.10
64561;DHT22;50960;46.838;16.838;2023-02-28T05:39:08;1.10;91.90
64561;DHT22;50960;46.838;16.838;2023-02-28T05:41:42;1.10;91.80
64561;DHT22;50960;46.838;16.838;2023-02-28T05:44:09;1.00;91.70
64561;DHT22;50960;46.838;16.838;2023-02-28T05:46:36;1.10;91.80
64561;DHT22;50960;46.838;16.838;2023-02-28T05:49:02;1.10;91.40
64561;DHT22;50960;46.838;16.838;2023-02-28T05:51:29;1.10;91.50
64561;DHT22;50960;46.838;16.838;2023-02-28T05:53:59;1.10;91.30
64561;DHT22;50960;46.838;16.838;2023-02-28T05:56:25;1.10;91.30
64561;DHT22;50960;46.838;16.838;2023-02-28T05:58:52;1.10;91.30
64561;DHT22;50960;46.838;16.838;2023-02-28T06:03:56;1.10;91.00
64561;DHT22;50960;46.838;16.838;2023-02-28T06:06:23;1.20;90.50
64561;DHT22;50960;46.838;16.838;2023-02-28T06:08:50;1.20;91.00
64561;DHT22;50960;46.838;16.838;2023-02-28T06:11:16;1.40;91.40
64561;DHT22;50960;46.838;16.838;2023-02-28T06:13:43;1.50;90.70
64561;DHT22;50960;46.838;16.838;2023-02-28T06:16:10;1.60;90.20
64561;DHT22;50960;46.838;16.838;2023-02-28T06:18:37;1.70;90.40
64561;DHT22;50960;46.838;16.838;2023-02-28T06:21:04;1.80;90.30
64561;DHT22;50960;46.838;16.838;2023-02-28T06:23:30;2.00;90.60
64561;DHT22;50960;46.838;16.838;2023-02-28T06:25:56;1.80;88.10
64561;DHT22;50960;46.838;16.838;2023-02-28T06:28:25;2.00;90.40
64561;DHT22;50960;46.838;16.838;2023-02-28T06:30:52;2.10;89.50
64561;DHT22;50960;46.838;16.838;2023-02-28T06:33:18;2.20;87.50
64561;DHT22;50960;46.838;16.838;2023-02-28T06:35:47;2.20;86.80
64561;DHT22;50960;46.838;16.838;2023-02-28T06:38:14;2.20;86.10
64561;DHT22;50960;46.838;16.838;2023-02-28T06:40:40;2.20;85.60
64561;DHT22;50960;46.838;16.838;2023-02-28T06:43:06;2.30;86.10
64561;DHT22;50960;46.838;16.838;2023-02-28T06:45:33;2.30;84.80
64561;DHT22;50960;46.838;16.838;2023-02-28T06:48:00;2.40;85.60
64561;DHT22;50960;46.838;16.838;2023-02-28T06:50:27;2.50;84.40
64561;DHT22;50960;46.838;16.838;2023-02-28T06:52:55;2.60;84.40
64561;DHT22;50960;46.838;16.838;2023-02-28T06:55:21;2.60;84.70
64561;DHT22;50960;46.838;16.838;2023-02-28T06:57:48;2.70;84.20
64561;DHT22;50960;46.838;16.838;2023-02-28T07:00:16;2.70;83.40
64561;DHT22;50960;46.838;16.838;2023-02-28T07:02:43;2.70;83.40
64561;DHT22;50960;46.838;16.838;2023-02-28T07:05:10;2.50;82.90
64561;DHT22;50960;46.838;16.838;2023-02-28T07:07:36;2.50;83.40
64561;DHT22;50960;46.838;16.838;2023-02-28T07:10:06;2.60;82.80
64561;DHT22;50960;46.838;16.838;2023-02-28T07:12:33;2.80;82.40
64561;DHT22;50960;46.838;16.838;2023-02-28T07:14:59;2.90;82.60
64561;DHT22;50960;46.838;16.838;2023-02-28T07:17:26;3.10;82.10
64561;DHT22;50960;46.838;16.838;2023-02-28T07:19:52;3.20;81.80
64561;DHT22;50960;46.838;16.838;2023-02-28T07:22:18;3.40;81.10
64561;DHT22;50960;46.838;16.838;2023-02-28T07:24:45;3.40;81.30
64561;DHT22;50960;46.838;16.838;2023-02-28T07:27:11;3.40;80.30
64561;DHT22;50960;46.838;16.838;2023-02-28T07:29:37;3.50;79.70
64561;DHT22;50960;46.838;16.838;2023-02-28T07:32:04;3.50;79.70
64561;DHT22;50960;46.838;16.838;2023-02-28T07:34:30;3.50;78.70
64561;DHT22;50960;46.838;16.838;2023-02-28T07:36:57;3.50;79.60
64561;DHT22;50960;46.838;16.838;2023-02-28T07:39:23;3.60;78.70
64561;DHT22;50960;46.838;16.838;2023-02-28T07:41:50;3.70;79.00
64561;DHT22;50960;46.838;16.838;2023-02-28T07:44:18;3.90;78.50
64561;DHT22;50960;46.838;16.838;2023-02-28T07:46:44;4.10;77.60
64561;DHT22;50960;46.838;16.838;2023-02-28T07:49:10;4.30;76.90
64561;DHT22;50960;46.838;16.838;2023-02-28T07:51:37;4.30;75.20
64561;DHT22;50960;46.838;16.838;2023-02-28T07:54:03;4.40;74.80
64561;DHT22;50960;46.838;16.838;2023-02-28T07:56:30;4.50;74.80
64561;DHT22;50960;46.838;16.838;2023-02-28T07:58:57;4.70;74.10
64561;DHT22;50960;46.838;16.838;2023-02-28T08:01:24;4.80;73.90
64561;DHT22;50960;46.838;16.838;2023-02-28T08:03:50;5.00;73.10
64561;DHT22;50960;46.838;16.838;2023-02-28T08:06:19;4.90;71.70
64561;DHT22;50960;46.838;16.838;2023-02-28T08:08:46;5.10;72.20
64561;DHT22;50960;46.838;16.838;2023-02-28T08:11:13;5.30;71.10
64561;DHT22;50960;46.838;16.838;2023-02-28T08:13:39;5.40;71.10
64561;DHT22;50960;46.838;16.838;2023-02-28T08:16:06;5.30;70.10
64561;DHT22;50960;46.838;16.838;2023-02-28T08:18:32;5.20;69.40
64561;DHT22;50960;46.838;16.838;2023-02-28T08:20:59;5.10;70.20
64561;DHT22;50960;46.838;16.838;2023-02-28T08:23:26;5.50;70.50
64561;DHT22;50960;46.838;16.838;2023-02-28T08:25:56;5.50;69.00
64561;DHT22;50960;46.838;16.838;2023-02-28T08:28:24;5.30;68.10
64561;DHT22;50960;46.838;16.838;2023-02-28T08:30:50;5.40;69.10
64561;DHT22;50960;46.838;16.838;2023-02-28T08:33:17;5.80;68.80
64561;DHT22;50960;46.838;16.838;2023-02-28T08:35:43;5.60;67.30
64561;DHT22;50960;46.838;16.838;2023-02-28T08:38:09;5.90;67.80
64561;DHT22;50960;46.838;16.838;2023-02-28T08:40:36;6.10;67.00
64561;DHT22;50960;46.838;16.838;2023-02-28T08:43:02;6.40;66.60
64561;DHT22;50960;46.838;16.838;2023-02-28T08:45:29;6.10;66.10
64561;DHT22;50960;46.838;16.838;2023-02-28T08:47:55;6.20;66.80
64561;DHT22;50960;46.838;16.838;2023-02-28T08:50:22;5.80;62.80
64561;DHT22;50960;46.838;16.838;2023-02-28T08:52:48;6.00;64.30
64561;DHT22;50960;46.838;16.838;2023-02-28T08:55:14;6.20;63.40
64561;DHT22;50960;46.838;16.838;2023-02-28T08:57:41;6.10;63.20
64561;DHT22;50960;46.838;16.838;2023-02-28T09:00:08;6.40;62.60
64561;DHT22;50960;46.838;16.838;2023-02-28T09:02:34;6.60;62.30
64561;DHT22;50960;46.838;16.838;2023-02-28T09:05:01;6.60;60.70
64561;DHT22;50960;46.838;16.838;2023-02-28T09:07:27;6.50;60.70
64561;DHT22;50960;46.838;16.838;2023-02-28T09:09:53;6.50;61.00
64561;DHT22;50960;46.838;16.838;2023-02-28T09:12:24;6.70;61.00
64561;DHT22;50960;46.838;16.838;2023-02-28T09:14:51;6.80;59.60
64561;DHT22;50960;46.838;16.838;2023-02-28T09:17:18;6.30;59.70
64561;DHT22;50960;46.838;16.838;2023-02-28T09:19:47;6.50;60.80
64561;DHT22;50960;46.838;16.838;2023-02-28T09:22:13;6.50;59.30
64561;DHT22;50960;46.838;16.838;2023-02-28T09:24:39;6.60;59.80
64561;DHT22;50960;46.838;16.838;2023-02-28T09:27:06;6.80;59.30
64561;DHT22;50960;46.838;16.838;2023-02-28T09:29:34;6.50;57.90
64561;DHT22;50960;46.838;16.838;2023-02-28T09:32:01;6.50;59.60
64561;DHT22;50960;46.838;16.838;2023-02-28T09:34:28;6.50;58.90
64561;DHT22;50960;46.838;16.838;2023-02-28T09:36:57;6.60;59.30
64561;DHT22;50960;46.838;16.838;2023-02-28T09:39:24;6.30;59.10
64561;DHT22;50960;46.838;16.838;2023-02-28T09:41:54;5.70;60.30
64561;DHT22;50960;46.838;16.838;2023-02-28T09:44:31;6.20;61.40
64561;DHT22;50960;46.838;16.838;2023-02-28T09:47:10;6.40;59.00
64561;DHT22;50960;46.838;16.838;2023-02-28T09:49:42;6.40;59.10
64561;DHT22;50960;46.838;16.838;2023-02-28T09:52:24;6.40;59.00
64561;DHT22;50960;46.838;16.838;2023-02-28T09:54:54;6.30;59.40
64561;DHT22;50960;46.838;16.838;2023-02-28T09:57:36;6.50;59.00
64561;DHT22;50960;46.838;16.838;2023-02-28T10:05:15;6.60;59.30
64561;DHT22;50960;46.838;16.838;2023-02-28T10:10:35;6.50;60.20
64561;DHT22;50960;46.838;16.838;2023-02-28T10:13:06;6.70;59.40
64561;DHT22;50960;46.838;16.838;2023-02-28T10:15:38;6.80;56.70
64561;DHT22;50960;46.838;16.838;2023-02-28T10:18:08;6.70;56.70
64561;DHT22;50960;46.838;16.838;2023-02-28T10:20:39;6.20;58.10
64561;DHT22;50960;46.838;16.838;2023-02-28T10:26:00;6.10;58.50
64561;DHT22;50960;46.838;16.838;2023-02-28T10:28:29;5.90;57.60
64561;DHT22;50960;46.838;16.838;2023-02-28T10:30:57;5.80;59.00
64561;DHT22;50960;46.838;16.838;2023-02-28T10:33:30;6.00;59.20
64561;DHT22;50960;46.838;16.838;2023-02-28T10:35:57;6.20;59.40
64561;DHT22;50960;46.838;16.838;2023-02-28T10:38:35;6.30;58.60
64561;DHT22;50960;46.838;16.838;2023-02-28T10:41:33;6.30;58.10
64561;DHT22;50960;46.838;16.838;2023-02-28T10:44:23;6.30;58.10
64561;DHT22;50960;46.838;16.838;2023-02-28T10:46:50;6.30;58.00
64561;DHT22;50960;46.838;16.838;2023-02-28T10:49:21;6.50;58.00
64561;DHT22;50960;46.838;16.838;2023-02-28T10:51:55;6.30;57.90
64561;DHT22;50960;46.838;16.838;2023-02-28T10:59:39;5.90;58.70
64561;DHT22;50960;46.838;16.838;2023-02-28T11:02:29;5.90;59.10
64561;DHT22;50960;46.838;16.838;2023-02-28T11:04:55;6.10;58.00
64561;DHT22;50960;46.838;16.838;2023-02-28T11:07:23;6.10;58.60
64561;DHT22;50960;46.838;16.838;2023-02-28T11:09:52;6.50;58.30
64561;DHT22;50960;46.838;16.838;2023-02-28T11:12:20;6.80;55.90
64561;DHT22;50960;46.838;16.838;2023-02-28T11:14:51;6.90;55.50
64561;DHT22;50960;46.838;16.838;2023-02-28T11:17:23;7.40;55.30
64561;DHT22;50960;46.838;16.838;2023-02-28T11:19:53;7.40;53.40
64561;DHT22;50960;46.838;16.838;2023-02-28T11:22:24;7.90;54.40
64561;DHT22;50960;46.838;16.838;2023-02-28T11:24:54;8.20;53.70
64561;DHT22;50960;46.838;16.838;2023-02-28T11:29:52;8.20;51.50
64561;DHT22;50960;46.838;16.838;2023-02-28T11:32:20;8.20;51.70
64561;DHT22;50960;46.838;16.838;2023-02-28T11:35:02;8.00;52.00
64561;DHT22;50960;46.838;16.838;2023-02-28T11:37:29;8.00;52.20
64561;DHT22;50960;46.838;16.838;2023-02-28T11:39:56;8.10;52.20
64561;DHT22;50960;46.838;16.838;2023-02-28T11:53:22;9.30;46.70
64561;DHT22;50960;46.838;16.838;2023-02-28T11:56:03;9.10;48.30
64561;DHT22;50960;46.838;16.838;2023-02-28T12:01:27;8.00;49.50
64561;DHT22;50960;46.838;16.838;2023-02-28T12:07:00;7.20;52.00
64561;DHT22;50960;46.838;16.838;2023-02-28T12:15:25;7.70;51.40
64561;DHT22;50960;46.838;16.838;2023-02-28T12:18:06;8.20;50.80
64561;DHT22;50960;46.838;16.838;2023-02-28T12:29:29;15.90;40.80
64561;DHT22;50960;46.838;16.838;2023-02-28T12:31:59;15.40;36.80
64561;DHT22;50960;46.838;16.838;2023-02-28T12:34:33;13.60;36.50
64561;DHT22;50960;46.838;16.838;2023-02-28T12:37:09;12.90;37.40
64561;DHT22;50960;46.838;16.838;2023-02-28T12:39:41;11.90;39.70
64561;DHT22;50960;46.838;16.838;2023-02-28T12:42:30;12.40;40.00
64561;DHT22;50960;46.838;16.838;2023-02-28T12:45:07;11.90;39.60
64561;DHT22;50960;46.838;16.838;2023-02-28T12:47:38;11.90;40.60
64561;DHT22;50960;46.838;16.838;2023-02-28T12:50:08;10.20;42.30
64561;DHT22;50960;46.838;16.838;2023-02-28T12:53:06;9.60;43.40
64561;DHT22;50960;46.838;16.838;2023-02-28T12:55:40;9.70;43.80
64561;DHT22;50960;46.838;16.838;2023-02-28T12:58:19;10.00;43.80
64561;DHT22;50960;46.838;16.838;2023-02-28T13:06:33;10.70;42.40
64561;DHT22;50960;46.838;16.838;2023-02-28T13:09:10;10.90;41.30
64561;DHT22;50960;46.838;16.838;2023-02-28T13:11:41;11.10;40.70
64561;DHT22;50960;46.838;16.838;2023-02-28T13:14:36;11.10;40.90
64561;DHT22;50960;46.838;16.838;2023-02-28T13:19:44;11.30;39.50
64561;DHT22;50960;46.838;16.838;2023-02-28T13:22:46;11.30;40.10
64561;DHT22;50960;46.838;16.838;2023-02-28T13:27:53;9.80;41.50
64561;DHT22;50960;46.838;16.838;2023-02-28T13:38:45;10.20;41.90
64561;DHT22;50960;46.838;16.838;2023-02-28T13:41:40;10.10;41.70
64561;DHT22;50960;46.838;16.838;2023-02-28T13:49:28;10.80;39.30
64561;DHT22;50960;46.838;16.838;2023-02-28T13:58:04;10.30;40.80
64561;DHT22;50960;46.838;16.838;2023-02-28T14:06:52;9.90;43.10
64561;DHT22;50960;46.838;16.838;2023-02-28T14:11:54;10.20;43.00
64561;DHT22;50960;46.838;16.838;2023-02-28T14:17:12;10.00;42.70
64561;DHT22;50960;46.838;16.838;2023-02-28T14:19:44;10.00;43.00
64561;DHT22;50960;46.838;16.838;2023-02-28T14:22:43;9.90;43.40
64561;DHT22;50960;46.838;16.838;2023-02-28T14:25:40;9.80;42.80
64561;DHT22;50960;46.838;16.838;2023-02-28T14:31:28;9.80;44.10
64561;DHT22;50960;46.838;16.838;2023-02-28T14:36:42;9.80;43.00
64561;DHT22;50960;46.838;16.838;2023-02-28T14:39:18;9.70;43.00
64561;DHT22;50960;46.838;16.838;2023-02-28T14:41:47;9.60;43.00
64561;DHT22;50960;46.838;16.838;2023-02-28T14:46:44;9.40;43.20
64561;DHT22;50960;46.838;16.838;2023-02-28T14:49:44;9.00;43.30
64561;DHT22;50960;46.838;16.838;2023-02-28T14:52:14;9.20;44.50
64561;DHT22;50960;46.838;16.838;2023-02-28T14:54:41;9.60;44.30
64561;DHT22;50960;46.838;16.838;2023-02-28T14:57:29;9.70;43.30
64561;DHT22;50960;46.838;16.838;2023-02-28T15:00:14;9.80;42.60
64561;DHT22;50960;46.838;16.838;2023-02-28T15:02:41;9.50;43.20
64561;DHT22;50960;46.838;16.838;2023-02-28T15:07:45;10.10;42.20
64561;DHT22;50960;46.838;16.838;2023-02-28T15:10:23;10.80;41.90
64561;DHT22;50960;46.838;16.838;2023-02-28T15:12:59;11.40;41.10
64561;DHT22;50960;46.838;16.838;2023-02-28T15:15:42;11.10;39.20
64561;DHT22;50960;46.838;16.838;2023-02-28T15:20:51;16.10;38.20
64561;DHT22;50960;46.838;16.838;2023-02-28T15:23:19;17.80;33.00
64561;DHT22;50960;46.838;16.838;2023-02-28T15:25:50;15.50;32.50
64561;DHT22;50960;46.838;16.838;2023-02-28T15:28:20;14.10;34.30
64561;DHT22;50960;46.838;16.838;2023-02-28T15:30:53;12.80;34.80
64561;DHT22;50960;46.838;16.838;2023-02-28T15:33:26;12.20;37.10
64561;DHT22;50960;46.838;16.838;2023-02-28T15:36:23;11.50;37.90
64561;DHT22;50960;46.838;16.838;2023-02-28T15:38:52;10.70;39.20
64561;DHT22;50960;46.838;16.838;2023-02-28T15:41:25;10.70;39.70
64561;DHT22;50960;46.838;16.838;2023-02-28T15:44:15;10.70;39.70
64561;DHT22;50960;46.838;16.838;2023-02-28T15:46:54;10.20;40.30
64561;DHT22;50960;46.838;16.838;2023-02-28T15:49:22;9.70;41.10
64561;DHT22;50960;46.838;16.838;2023-02-28T15:51:51;9.60;42.10
64561;DHT22;50960;46.838;16.838;2023-02-28T15:54:24;9.30;41.40
64561;DHT22;50960;46.838;16.838;2023-02-28T15:56:55;9.10;42.50
64561;DHT22;50960;46.838;16.838;2023-02-28T15:59:28;9.00;43.60
64561;DHT22;50960;46.838;16.838;2023-02-28T16:02:21;8.60;44.00
64561;DHT22;50960;46.838;16.838;2023-02-28T16:07:29;8.30;44.70
64561;DHT22;50960;46.838;16.838;2023-02-28T16:09:55;8.00;45.10
64561;DHT22;50960;46.838;16.838;2023-02-28T16:12:27;7.90;46.20
64561;DHT22;50960;46.838;16.838;2023-02-28T16:14:55;7.60;47.90
64561;DHT22;50960;46.838;16.838;2023-02-28T16:17:28;7.40;47.80
64561;DHT22;50960;46.838;16.838;2023-02-28T16:19:55;7.10;48.10
64561;DHT22;50960;46.838;16.838;2023-02-28T16:22:22;6.90;48.60
64561;DHT22;50960;46.838;16.838;2023-02-28T16:24:48;6.70;49.60
64561;DHT22;50960;46.838;16.838;2023-02-28T16:27:41;6.70;50.00
64561;DHT22;50960;46.838;16.838;2023-02-28T16:30:16;6.60;50.00
64561;DHT22;50960;46.838;16.838;2023-02-28T16:32:44;6.50;50.10
64561;DHT22;50960;46.838;16.838;2023-02-28T16:35:11;6.50;50.70
64561;DHT22;50960;46.838;16.838;2023-02-28T16:37:40;6.40;50.80
64561;DHT22;50960;46.838;16.838;2023-02-28T16:40:15;6.30;51.30
64561;DHT22;50960;46.838;16.838;2023-02-28T16:42:43;6.10;52.50
64561;DHT22;50960;46.838;16.838;2023-02-28T16:45:30;6.00;53.60
64561;DHT22;50960;46.838;16.838;2023-02-28T16:47:57;5.90;54.00
64561;DHT22;50960;46.838;16.838;2023-02-28T16:50:26;5.80;54.70
64561;DHT22;50960;46.838;16.838;2023-02-28T16:52:53;5.60;55.10
64561;DHT22;50960;46.838;16.838;2023-02-28T16:55:21;5.60;55.50
64561;DHT22;50960;46.838;16.838;2023-02-28T16:57:52;5.50;54.70
64561;DHT22;50960;46.838;16.838;2023-02-28T17:00:19;5.40;55.70
64561;DHT22;50960;46.838;16.838;2023-02-28T17:02:45;5.30;56.20
64561;DHT22;50960;46.838;16.838;2023-02-28T17:05:12;5.20;57.00
64561;DHT22;50960;46.838;16.838;2023-02-28T17:07:39;5.20;57.00
64561;DHT22;50960;46.838;16.838;2023-02-28T17:10:26;5.10;57.10
64561;DHT22;50960;46.838;16.838;2023-02-28T17:12:52;5.00;57.00
64561;DHT22;50960;46.838;16.838;2023-02-28T17:15:19;5.00;56.80
64561;DHT22;50960;46.838;16.838;2023-02-28T17:17:47;4.90;57.30
64561;DHT22;50960;46.838;16.838;2023-02-28T17:20:17;4.90;57.10
64561;DHT22;50960;46.838;16.838;2023-02-28T17:22:44;4.80;57.50
64561;DHT22;50960;46.838;16.838;2023-02-28T17:25:13;4.80;58.50
64561;DHT22;50960;46.838;16.838;2023-02-28T17:27:40;4.70;58.40
64561;DHT22;50960;46.838;16.838;2023-02-28T17:30:27;4.70;58.60
64561;DHT22;50960;46.838;16.838;2023-02-28T17:32:54;4.70;59.80
64561;DHT22;50960;46.838;16.838;2023-02-28T17:35:21;4.60;59.50
64561;DHT22;50960;46.838;16.838;2023-02-28T17:37:48;4.60;59.30
64561;DHT22;50960;46.838;16.838;2023-02-28T17:40:21;4.50;60.10
64561;DHT22;50960;46.838;16.838;2023-02-28T17:42:48;4.50;59.40
64561;DHT22;50960;46.838;16.838;2023-02-28T17:45:15;4.50;60.10
64561;DHT22;50960;46.838;16.838;2023-02-28T17:47:43;4.50;59.70
64561;DHT22;50960;46.838;16.838;2023-02-28T17:50:17;4.50;59.50
64561;DHT22;50960;46.838;16.838;2023-02-28T17:52:44;4.50;60.20
64561;DHT22;50960;46.838;16.838;2023-02-28T17:55:11;4.50;60.60
64561;DHT22;50960;46.838;16.838;2023-02-28T17:57:38;4.40;60.60
64561;DHT22;50960;46.838;16.838;2023-02-28T18:00:05;4.40;61.20
64561;DHT22;50960;46.838;16.838;2023-02-28T18:02:33;4.40;61.70
64561;DHT22;50960;46.838;16.838;2023-02-28T18:04:59;4.40;61.20
64561;DHT22;50960;46.838;16.838;2023-02-28T18:07:25;4.30;60.90
64561;DHT22;50960;46.838;16.838;2023-02-28T18:09:52;4.30;61.80
64561;DHT22;50960;46.838;16.838;2023-02-28T18:12:18;4.30;62.10
64561;DHT22;50960;46.838;16.838;2023-02-28T18:14:44;4.30;62.70
64561;DHT22;50960;46.838;16.838;2023-02-28T18:17:12;4.30;63.10
64561;DHT22;50960;46.838;16.838;2023-02-28T18:19:38;4.30;63.30
64561;DHT22;50960;46.838;16.838;2023-02-28T18:22:05;4.30;63.10
64561;DHT22;50960;46.838;16.838;2023-02-28T18:24:34;4.40;63.50
64561;DHT22;50960;46.838;16.838;2023-02-28T18:27:01;4.30;64.80
64561;DHT22;50960;46.838;16.838;2023-02-28T18:29:28;4.20;64.80
64561;DHT22;50960;46.838;16.838;2023-02-28T18:31:55;4.10;65.10
64561;DHT22;50960;46.838;16.838;2023-02-28T18:34:23;4.00;64.90
64561;DHT22;50960;46.838;16.838;2023-02-28T18:36:51;3.90;65.40
64561;DHT22;50960;46.838;16.838;2023-02-28T18:39:18;3.70;65.30
64561;DHT22;50960;46.838;16.838;2023-02-28T18:41:45;3.70;66.00
64561;DHT22;50960;46.838;16.838;2023-02-28T18:44:13;3.70;66.20
64561;DHT22;50960;46.838;16.838;2023-02-28T18:46:40;3.70;66.50
64561;DHT22;50960;46.838;16.838;2023-02-28T18:49:07;3.60;66.50
64561;DHT22;50960;46.838;16.838;2023-02-28T18:51:33;3.50;66.90
64561;DHT22;50960;46.838;16.838;2023-02-28T18:54:01;3.50;68.30
64561;DHT22;50960;46.838;16.838;2023-02-28T18:56:27;3.60;67.70
64561;DHT22;50960;46.838;16.838;2023-02-28T18:59:00;3.60;67.40
64561;DHT22;50960;46.838;16.838;2023-02-28T19:01:28;3.60;67.10
64561;DHT22;50960;46.838;16.838;2023-02-28T19:04:01;3.70;66.90
64561;DHT22;50960;46.838;16.838;2023-02-28T19:06:30;3.70;67.10
64561;DHT22;50960;46.838;16.838;2023-02-28T19:08:58;3.80;67.30
64561;DHT22;50960;46.838;16.838;2023-02-28T19:11:25;3.90;67.30
64561;DHT22;50960;46.838;16.838;2023-02-28T19:13:52;3.90;67.70
64561;DHT22;50960;46.838;16.838;2023-02-28T19:16:20;4.00;67.30
64561;DHT22;50960;46.838;16.838;2023-02-28T19:18:46;4.00;66.70
64561;DHT22;50960;46.838;16.838;2023-02-28T19:21:16;4.00;66.80
64561;DHT22;50960;46.838;16.838;2023-02-28T19:23:44;4.00;66.70
64561;DHT22;50960;46.838;16.838;2023-02-28T19:26:16;4.00;66.50
64561;DHT22;50960;46.838;16.838;2023-02-28T19:28:43;4.00;66.70
64561;DHT22;50960;46.838;16.838;2023-02-28T19:31:18;4.00;66.80
64561;DHT22;50960;46.838;16.838;2023-02-28T19:33:45;4.10;66.70
64561;DHT22;50960;46.838;16.838;2023-02-28T19:36:15;4.20;67.30
64561;DHT22;50960;46.838;16.838;2023-02-28T19:38:42;4.20;66.20
64561;DHT22;50960;46.838;16.838;2023-02-28T19:41:11;4.10;65.30
64561;DHT22;50960;46.838;16.838;2023-02-28T19:43:38;4.10;65.00
64561;DHT22;50960;46.838;16.838;2023-02-28T19:46:06;4.10;65.10
64561;DHT22;50960;46.838;16.838;2023-02-28T19:48:34;4.00;64.60
64561;DHT22;50960;46.838;16.838;2023-02-28T19:51:03;4.10;64.60
64561;DHT22;50960;46.838;16.838;2023-02-28T19:53:31;4.10;64.60
64561;DHT22;50960;46.838;16.838;2023-02-28T19:55:58;4.20;64.40
64561;DHT22;50960;46.838;16.838;2023-02-28T19:58:25;4.20;64.50
64561;DHT22;50960;46.838;16.838;2023-02-28T20:00:52;4.20;64.40
64561;DHT22;50960;46.838;16.838;2023-02-28T20:03:19;4.20;64.80
64561;DHT22;50960;46.838;16.838;2023-02-28T20:05:45;4.20;64.20
64561;DHT22;50960;46.838;16.838;2023-02-28T20:08:13;4.20;63.70
64561;DHT22;50960;46.838;16.838;2023-02-28T20:10:41;4.20;64.00
64561;DHT22;50960;46.838;16.838;2023-02-28T20:13:07;4.20;64.10
64561;DHT22;50960;46.838;16.838;2023-02-28T20:15:33;4.20;64.30
64561;DHT22;50960;46.838;16.838;2023-02-28T20:18:01;4.10;64.10
64561;DHT22;50960;46.838;16.838;2023-02-28T20:20:27;4.10;63.90
64561;DHT22;50960;46.838;16.838;2023-02-28T20:22:53;4.00;64.00
64561;DHT22;50960;46.838;16.838;2023-02-28T20:25:20;4.00;64.60
64561;DHT22;50960;46.838;16.838;2023-02-28T20:27:46;4.00;64.70
64561;DHT22;50960;46.838;16.838;2023-02-28T20:30:12;3.90;65.20
64561;DHT22;50960;46.838;16.838;2023-02-28T20:32:40;3.90;65.60
64561;DHT22;50960;46.838;16.838;2023-02-28T20:35:07;3.90;65.80
64561;DHT22;50960;46.838;16.838;2023-02-28T20:37:37;3.90;65.90
64561;DHT22;50960;46.838;16.838;2023-02-28T20:40:04;3.90;65.80
64561;DHT22;50960;46.838;16.838;2023-02-28T20:42:31;3.90;65.50
64561;DHT22;50960;46.838;16.838;2023-02-28T20:44:58;3.90;65.60
64561;DHT22;50960;46.838;16.838;2023-02-28T20:47:24;3.80;65.60
64561;DHT22;50960;46.838;16.838;2023-02-28T20:49:50;3.90;65.50
64561;DHT22;50960;46.838;16.838;2023-02-28T20:52:18;3.90;65.30
64561;DHT22;50960;46.838;16.838;2023-02-28T20:54:44;3.80;65.20
64561;DHT22;50960;46.838;16.838;2023-02-28T20:57:11;3.80;65.30
64561;DHT22;50960;46.838;16.838;2023-02-28T20:59:38;3.90;65.20
64561;DHT22;50960;46.838;16.838;2023-02-28T21:02:06;3.90;65.00
64561;DHT22;50960;46.838;16.838;2023-02-28T21:04:35;3.90;65.10
64561;DHT22;50960;46.838;16.838;2023-02-28T21:07:02;3.90;64.40
64561;DHT22;50960;46.838;16.838;2023-02-28T21:09:28;3.90;64.80
64561;DHT22;50960;46.838;16.838;2023-02-28T21:11:55;3.90;64.90
64561;DHT22;50960;46.838;16.838;2023-02-28T21:14:24;3.80;64.70
64561;DHT22;50960;46.838;16.838;2023-02-28T21:16:51;3.80;64.80
64561;DHT22;50960;46.838;16.838;2023-02-28T21:19:17;3.70;64.70
64561;DHT22;50960;46.838;16.838;2023-02-28T21:21:44;3.80;65.00
64561;DHT22;50960;46.838;16.838;2023-02-28T21:24:17;3.70;65.60
64561;DHT22;50960;46.838;16.838;2023-02-28T21:26:45;3.60;65.50
64561;DHT22;50960;46.838;16.838;2023-02-28T21:29:13;3.50;66.40
64561;DHT22;50960;46.838;16.838;2023-02-28T21:31:39;3.70;67.00
64561;DHT22;50960;46.838;16.838;2023-02-28T21:34:11;3.80;67.20
64561;DHT22;50960;46.838;16.838;2023-02-28T21:36:40;3.80;66.60
64561;DHT22;50960;46.838;16.838;2023-02-28T21:39:23;3.60;66.70
64561;DHT22;50960;46.838;16.838;2023-02-28T21:41:51;3.60;67.10
64561;DHT22;50960;46.838;16.838;2023-02-28T21:44:18;3.70;67.30
64561;DHT22;50960;46.838;16.838;2023-02-28T21:46:46;3.70;67.00
64561;DHT22;50960;46.838;16.838;2023-02-28T21:49:16;3.80;67.10
64561;DHT22;50960;46.838;16.838;2023-02-28T21:51:42;3.80;67.00
64561;DHT22;50960;46.838;16.838;2023-02-28T21:54:09;3.80;66.30
64561;DHT22;50960;46.838;16.838;2023-02-28T21:56:36;3.70;66.10
64561;DHT22;50960;46.838;16.838;2023-02-28T21:59:03;3.80;66.10
64561;DHT22;50960;46.838;16.838;2023-02-28T22:01:34;3.70;66.10
64561;DHT22;50960;46.838;16.838;2023-02-28T22:04:02;3.70;66.10
64561;DHT22;50960;46.838;16.838;2023-02-28T22:06:32;3.90;66.00
